Terminal Aerodrome Forecast
Issued by NWS

Home | Current Version | Previous Version | Text Only | Print | Product List | Glossary On
Versions: 1 2 3 4 5 6 7 8 9 10 11 12 13 14 15 16 17 18 19 20 21 22 23 24 25 26 27 28 29 30 31 32 33 34 35 36 37
000
FTUS44 KHGX 272334
TAFCXO
TAF
KCXO 272334Z 2800/2824 17010KT P6SM SCT006 BKN025
      TEMPO 2802/2805 BKN006
     FM280600 16008KT P6SM FEW025 SCT080
     FM280800 16005KT P6SM BKN015
      TEMPO 2808/2812 5SM BR OVC007
     FM281500 17009KT P6SM BKN025
     FM282000 15007KT P6SM VCSH BKN050=

USA.gov is the U.S. government's official web portal to all federal, state and local government web resources and services.